Kitsap Lake, Washington
Current Conditions -  °F | °C
As of 2:15 AM on Thursday 29 Jan 2015 (Local Time) from KPWT Reporting Station
Clear Clear  
Wind Chill: 38°   Ceiling: Unl
Heat Index: 43°   Visibility: 10mi
Dew Point: 41°   Wind: 8mph
Humidity: 93%   Direction: 30°NNE
Pressure: 30.38"   Gusts: NA
Location:  47.5691°N, 122.818°W
Report Text: KPWT 291015Z AUTO 03007KT 10SM CLR 06/05 A3038 RMK AO1
Loading
Personal Weather Stations






























Interactive Weather Map New forecast layout! Learn more

10-Day Weather Forecast

Advertisements
Track Severe Weather on mobile